createdAt,value
2023-02-15T00:00:24.344Z,1.00
2023-02-15T00:02:52.855Z,1.00
2023-02-15T00:05:21.207Z,1.00
2023-02-15T00:07:49.530Z,1.00
2023-02-15T00:10:19.109Z,1.00
2023-02-15T00:12:47.459Z,1.00
2023-02-15T00:15:15.914Z,1.00
2023-02-15T00:17:44.280Z,1.00
2023-02-15T00:20:12.872Z,1.00
2023-02-15T00:22:41.232Z,1.00
2023-02-15T00:25:09.755Z,1.00
2023-02-15T00:27:38.085Z,1.00
2023-02-15T00:30:07.784Z,1.00
2023-02-15T00:32:36.173Z,1.00
2023-02-15T00:35:04.612Z,1.00
2023-02-15T00:37:32.943Z,1.00
2023-02-15T00:40:01.342Z,1.00
2023-02-15T00:42:29.734Z,1.00
2023-02-15T00:44:58.061Z,1.00
2023-02-15T00:47:27.106Z,1.00
2023-02-15T00:49:55.454Z,1.00
2023-02-15T00:52:23.802Z,1.00
2023-02-15T00:54:52.261Z,1.00
2023-02-15T00:57:20.601Z,1.00
2023-02-15T00:59:48.993Z,1.00
2023-02-15T01:02:17.445Z,1.00
2023-02-15T01:04:45.927Z,1.00
2023-02-15T01:07:14.302Z,1.00
2023-02-15T01:09:42.678Z,1.00
2023-02-15T01:12:11.041Z,1.00
2023-02-15T01:14:39.383Z,1.00
2023-02-15T01:17:07.839Z,1.00
2023-02-15T01:19:36.614Z,1.00
2023-02-15T01:22:05.322Z,1.00
2023-02-15T01:24:33.919Z,1.00
2023-02-15T01:27:02.282Z,1.00
2023-02-15T01:29:30.633Z,1.00
2023-02-15T01:31:59.085Z,1.00
2023-02-15T01:34:27.525Z,1.00
2023-02-15T01:36:55.912Z,1.00
2023-02-15T01:39:24.352Z,1.00
2023-02-15T01:41:52.901Z,1.00
2023-02-15T01:44:59.481Z,1.00
2023-02-15T01:47:37.290Z,1.00
2023-02-15T01:50:21.144Z,1.00
2023-02-15T01:52:57.815Z,1.00
2023-02-15T01:55:28.861Z,1.00
2023-02-15T01:57:57.480Z,1.00
2023-02-15T02:00:26.004Z,1.00
2023-02-15T02:02:57.685Z,1.00
2023-02-15T02:05:26.894Z,1.00
2023-02-15T02:07:58.085Z,1.00
2023-02-15T02:10:27.837Z,1.00
2023-02-15T02:13:01.068Z,1.00
2023-02-15T02:15:42.625Z,1.00
2023-02-15T02:18:38.376Z,1.00
2023-02-15T02:21:28.419Z,1.00
2023-02-15T02:24:18.005Z,1.00
2023-02-15T02:27:22.467Z,1.00
2023-02-15T02:30:08.958Z,1.00
2023-02-15T02:33:09.104Z,1.00
2023-02-15T02:35:46.281Z,1.00
2023-02-15T02:38:29.442Z,1.00
2023-02-15T02:41:13.837Z,1.00
2023-02-15T02:44:04.862Z,1.00
2023-02-15T02:46:58.516Z,1.00
2023-02-15T02:49:35.821Z,1.00
2023-02-15T02:52:23.797Z,1.00
2023-02-15T02:54:52.411Z,1.00
2023-02-15T02:57:22.424Z,1.00
2023-02-15T02:59:53.109Z,1.00
2023-02-15T03:02:29.734Z,1.00
2023-02-15T03:05:05.460Z,1.00
2023-02-15T03:07:35.842Z,1.00
2023-02-15T03:10:07.224Z,1.00
2023-02-15T03:12:38.995Z,1.00
2023-02-15T03:15:21.251Z,1.00
2023-02-15T03:17:56.317Z,1.00
2023-02-15T03:20:36.097Z,1.00
2023-02-15T03:23:09.157Z,1.00
2023-02-15T03:25:43.133Z,1.00
2023-02-15T03:28:17.547Z,1.00
2023-02-15T03:30:51.029Z,1.00
2023-02-15T03:33:20.938Z,1.00
2023-02-15T03:36:09.481Z,1.00
2023-02-15T03:39:01.016Z,1.00
2023-02-15T03:41:36.045Z,1.00
2023-02-15T03:44:15.474Z,1.00
2023-02-15T03:46:58.849Z,1.00
2023-02-15T03:49:30.649Z,1.00
2023-02-15T03:52:01.595Z,1.00
2023-02-15T03:54:45.080Z,1.00
2023-02-15T03:57:36.067Z,1.00
2023-02-15T04:00:45.482Z,1.00
2023-02-15T04:04:01.403Z,1.00
2023-02-15T04:06:29.757Z,1.00
2023-02-15T04:09:16.586Z,1.00
2023-02-15T04:11:44.927Z,1.00
2023-02-15T04:14:31.912Z,1.00
2023-02-15T04:17:00.267Z,1.00
2023-02-15T04:19:47.237Z,1.00
2023-02-15T04:22:34.105Z,1.00
2023-02-15T04:25:14.581Z,1.00
2023-02-15T04:27:52.492Z,1.00
2023-02-15T04:30:24.677Z,1.00
2023-02-15T04:32:53.373Z,1.00
2023-02-15T04:35:22.125Z,1.00
2023-02-15T04:37:50.488Z,1.00
2023-02-15T04:40:19.938Z,1.00
2023-02-15T04:42:51.009Z,1.00
2023-02-15T04:45:19.904Z,1.00
2023-02-15T04:47:48.280Z,1.00
2023-02-15T04:50:16.752Z,1.00
2023-02-15T04:52:45.087Z,1.00
2023-02-15T04:55:13.511Z,1.00
2023-02-15T04:57:42.172Z,1.00
2023-02-15T05:00:10.972Z,1.90
2023-02-15T05:02:39.473Z,7.50
2023-02-15T05:05:09.024Z,1.70
2023-02-15T05:07:37.366Z,1.00
2023-02-15T05:10:06.003Z,1.00
2023-02-15T05:12:34.472Z,1.00
2023-02-15T05:15:02.814Z,1.00
2023-02-15T05:17:31.216Z,1.00
2023-02-15T05:19:59.605Z,2.40
2023-02-15T05:22:28.025Z,5.40
2023-02-15T05:25:28.644Z,14.20
2023-02-15T05:28:15.529Z,16.30
2023-02-15T05:30:44.805Z,18.70
2023-02-15T05:33:13.295Z,23.30
2023-02-15T05:35:42.072Z,23.30
2023-02-15T05:38:10.667Z,22.80
2023-02-15T05:40:39.046Z,28.70
2023-02-15T05:43:07.428Z,37.10
2023-02-15T05:45:35.812Z,43.60
2023-02-15T05:48:04.261Z,56.20
2023-02-15T05:50:32.669Z,55.10
2023-02-15T05:53:01.224Z,64.20
2023-02-15T05:55:29.598Z,74.40
2023-02-15T05:57:57.937Z,76.50
2023-02-15T06:00:27.280Z,79.80
2023-02-15T06:02:55.629Z,81.60
2023-02-15T06:05:24.115Z,82.80
2023-02-15T06:07:52.557Z,84.40
2023-02-15T06:10:21.087Z,88.40
2023-02-15T06:12:49.434Z,90.20
2023-02-15T06:15:18.037Z,92.20
2023-02-15T06:17:46.464Z,98.50
2023-02-15T06:20:15.625Z,99.90
2023-02-15T06:22:44.130Z,99.90
2023-02-15T06:25:13.002Z,99.90
2023-02-15T06:27:44.526Z,99.90
2023-02-15T06:30:14.052Z,99.90
2023-02-15T06:32:42.798Z,99.90
2023-02-15T06:35:11.257Z,99.90
2023-02-15T06:37:39.811Z,99.90
2023-02-15T06:40:10.230Z,99.90
2023-02-15T06:42:38.642Z,99.90
2023-02-15T06:45:08.530Z,99.90
2023-02-15T06:47:37.289Z,99.90
2023-02-15T06:50:09.540Z,99.90
2023-02-15T06:52:38.002Z,99.90
2023-02-15T06:55:07.169Z,99.90
2023-02-15T06:57:35.705Z,99.90
2023-02-15T07:00:06.542Z,99.90
2023-02-15T07:02:35.066Z,99.90
2023-02-15T07:05:03.564Z,99.90
2023-02-15T07:07:32.033Z,99.90
2023-02-15T07:10:00.361Z,99.90
2023-02-15T07:12:44.369Z,99.90
2023-02-15T07:15:15.340Z,99.90
2023-02-15T07:17:44.243Z,99.90
2023-02-15T07:20:16.104Z,99.90
2023-02-15T07:22:44.700Z,99.90
2023-02-15T07:25:14.263Z,99.90
2023-02-15T07:27:43.112Z,99.90
2023-02-15T07:30:14.780Z,99.90
2023-02-15T07:33:05.280Z,99.90
2023-02-15T07:35:34.830Z,99.90
2023-02-15T07:38:03.429Z,99.90
2023-02-15T07:40:31.918Z,99.90
2023-02-15T07:43:00.901Z,99.90
2023-02-15T07:45:29.271Z,99.90
2023-02-15T07:47:57.656Z,99.90
2023-02-15T07:50:26.141Z,99.90
2023-02-15T07:52:54.568Z,99.90
2023-02-15T07:55:23.334Z,99.90
2023-02-15T07:57:53.356Z,99.90
2023-02-15T08:00:26.535Z,99.90
2023-02-15T08:03:15.465Z,99.90
2023-02-15T08:05:46.441Z,99.90
2023-02-15T08:08:33.190Z,99.90
2023-02-15T08:11:19.866Z,99.90
2023-02-15T08:14:01.128Z,99.90
2023-02-15T08:16:37.242Z,99.90
2023-02-15T08:19:07.161Z,99.90
2023-02-15T08:21:38.252Z,99.90
2023-02-15T08:24:08.653Z,99.90
2023-02-15T08:26:38.551Z,99.90
2023-02-15T08:29:11.244Z,99.90
2023-02-15T08:31:40.141Z,99.90
2023-02-15T08:34:09.346Z,99.90
2023-02-15T08:36:37.774Z,99.90
2023-02-15T08:39:07.929Z,99.90
2023-02-15T08:41:38.511Z,99.90
2023-02-15T08:44:09.169Z,99.90
2023-02-15T08:46:40.532Z,99.90
2023-02-15T08:49:09.598Z,99.90
2023-02-15T08:51:40.165Z,99.90
2023-02-15T08:54:11.288Z,99.90
2023-02-15T08:56:41.875Z,99.90
2023-02-15T08:59:23.920Z,99.90
2023-02-15T09:01:54.025Z,99.90
2023-02-15T09:04:22.881Z,99.90
2023-02-15T09:06:52.430Z,99.90
2023-02-15T09:09:21.829Z,99.90
2023-02-15T09:11:58.780Z,99.90
2023-02-15T09:14:28.459Z,99.90
2023-02-15T09:16:57.270Z,99.90
2023-02-15T09:19:26.680Z,99.90
2023-02-15T09:21:55.638Z,99.90
2023-02-15T09:24:24.447Z,99.90
2023-02-15T09:26:52.911Z,99.90
2023-02-15T09:29:21.749Z,99.90
2023-02-15T09:31:52.533Z,99.90
2023-02-15T09:34:23.229Z,99.90
2023-02-15T09:36:52.740Z,99.90
2023-02-15T09:39:25.384Z,99.90
2023-02-15T09:42:35.023Z,99.90
2023-02-15T09:45:22.138Z,99.90
2023-02-15T09:48:17.816Z,99.90
2023-02-15T09:51:27.329Z,99.90
2023-02-15T09:54:12.955Z,99.90
2023-02-15T09:57:07.255Z,99.90
2023-02-15T09:59:47.602Z,99.90
2023-02-15T10:02:45.286Z,99.90
2023-02-15T10:05:33.879Z,99.90
2023-02-15T10:08:05.243Z,99.90
2023-02-15T10:10:43.173Z,99.90
2023-02-15T10:13:32.833Z,99.90
2023-02-15T10:16:29.946Z,99.90
2023-02-15T10:19:13.033Z,99.90
2023-02-15T10:22:07.702Z,99.90
2023-02-15T10:24:44.668Z,99.90
2023-02-15T10:27:23.482Z,99.90
2023-02-15T10:30:23.952Z,99.90
2023-02-15T10:33:11.161Z,99.90
2023-02-15T10:36:18.000Z,99.90
2023-02-15T10:39:09.493Z,99.90
2023-02-15T10:41:49.331Z,99.90
2023-02-15T10:44:39.517Z,99.90
2023-02-15T10:47:28.017Z,99.90
2023-02-15T10:50:28.989Z,99.90
2023-02-15T10:53:23.556Z,99.90
2023-02-15T10:56:10.104Z,99.90
2023-02-15T10:59:12.042Z,99.90
2023-02-15T11:01:53.904Z,99.90
2023-02-15T11:04:41.547Z,99.90
2023-02-15T11:07:47.918Z,99.90
2023-02-15T11:10:18.185Z,99.90
2023-02-15T11:12:48.216Z,99.90
2023-02-15T11:16:04.019Z,99.90
2023-02-15T11:18:53.568Z,99.90
2023-02-15T11:22:01.897Z,99.90
2023-02-15T11:24:35.726Z,99.90
2023-02-15T11:27:21.772Z,99.90
2023-02-15T11:29:53.059Z,99.90
2023-02-15T11:32:31.122Z,99.90
2023-02-15T11:35:05.371Z,99.90
2023-02-15T11:37:52.274Z,99.90
2023-02-15T11:40:28.801Z,99.90
2023-02-15T11:43:09.133Z,99.90
2023-02-15T11:45:37.882Z,99.90
2023-02-15T11:48:14.153Z,99.90
2023-02-15T11:50:43.681Z,99.90
2023-02-15T11:53:22.866Z,99.90
2023-02-15T11:55:52.986Z,99.90
2023-02-15T11:58:46.809Z,99.90
2023-02-15T12:01:34.126Z,99.90
2023-02-15T12:04:06.928Z,99.90
2023-02-15T12:06:40.552Z,99.90
2023-02-15T12:09:41.326Z,99.90
2023-02-15T12:12:35.228Z,99.90
2023-02-15T12:15:14.409Z,99.90
2023-02-15T12:17:59.328Z,99.90
2023-02-15T12:20:32.975Z,99.90
2023-02-15T12:23:13.781Z,99.90
2023-02-15T12:25:57.616Z,99.90
2023-02-15T12:28:48.325Z,99.90
2023-02-15T12:31:26.967Z,99.90
2023-02-15T12:33:59.840Z,99.90
2023-02-15T12:36:46.232Z,99.90
2023-02-15T12:39:14.578Z,99.90
2023-02-15T12:42:05.244Z,99.90
2023-02-15T12:44:36.221Z,99.90
2023-02-15T12:47:07.655Z,99.90
2023-02-15T12:49:40.052Z,99.90
2023-02-15T12:52:21.825Z,99.90
2023-02-15T12:54:51.142Z,99.90
2023-02-15T12:57:33.100Z,99.90
2023-02-15T13:00:02.687Z,99.90
2023-02-15T13:02:53.501Z,99.90
2023-02-15T13:05:45.355Z,99.90
2023-02-15T13:08:16.460Z,99.90
2023-02-15T13:11:08.873Z,99.90
2023-02-15T13:13:53.757Z,99.90
2023-02-15T13:16:39.348Z,99.90
2023-02-15T13:19:15.621Z,99.90
2023-02-15T13:21:47.295Z,99.90
2023-02-15T13:24:57.820Z,99.90
2023-02-15T13:27:37.262Z,99.90
2023-02-15T13:30:33.966Z,99.90
2023-02-15T13:33:07.069Z,99.90
2023-02-15T13:36:12.282Z,99.90
2023-02-15T13:39:04.473Z,99.90
2023-02-15T13:41:57.400Z,99.90
2023-02-15T13:44:58.790Z,99.90
2023-02-15T13:47:45.753Z,99.90
2023-02-15T13:50:52.721Z,99.90
2023-02-15T13:53:29.992Z,99.90
2023-02-15T13:56:09.807Z,99.90
2023-02-15T13:59:05.781Z,99.90
2023-02-15T14:01:45.405Z,99.90
2023-02-15T14:04:26.957Z,99.90
2023-02-15T14:07:01.231Z,99.90
2023-02-15T14:09:32.684Z,99.90
2023-02-15T14:12:25.722Z,99.90
2023-02-15T14:15:16.705Z,99.90
2023-02-15T14:18:09.159Z,99.90
2023-02-15T14:20:53.579Z,99.90
2023-02-15T14:23:46.080Z,99.90
2023-02-15T14:26:48.434Z,99.90
2023-02-15T14:29:36.145Z,99.90
2023-02-15T14:32:17.763Z,99.90
2023-02-15T14:35:03.949Z,99.90
2023-02-15T14:37:38.359Z,99.90
2023-02-15T14:40:50.040Z,99.90
2023-02-15T14:43:33.443Z,99.90
2023-02-15T14:46:24.728Z,99.90
2023-02-15T14:48:58.428Z,99.90
2023-02-15T14:51:45.044Z,99.90
2023-02-15T14:54:34.969Z,99.90
2023-02-15T14:57:03.374Z,99.90
2023-02-15T14:59:59.134Z,99.90
2023-02-15T15:02:30.342Z,99.90
2023-02-15T15:05:12.198Z,99.90
2023-02-15T15:08:01.804Z,99.90
2023-02-15T15:10:40.399Z,99.90
2023-02-15T15:13:54.505Z,99.90
2023-02-15T15:16:32.068Z,99.90
2023-02-15T15:19:01.497Z,99.90
2023-02-15T15:21:51.131Z,99.90
2023-02-15T15:24:41.033Z,99.90
2023-02-15T15:27:47.251Z,99.90
2023-02-15T15:30:15.705Z,99.90
2023-02-15T15:32:56.292Z,99.90
2023-02-15T15:35:43.117Z,99.90
2023-02-15T15:39:05.002Z,99.90
2023-02-15T15:41:50.354Z,99.90
2023-02-15T15:45:01.123Z,99.90
2023-02-15T15:48:06.126Z,99.90
2023-02-15T15:50:35.940Z,99.90
2023-02-15T15:53:05.690Z,99.90
2023-02-15T15:55:35.765Z,99.90
2023-02-15T15:58:08.005Z,99.90
2023-02-15T16:00:51.080Z,99.90
2023-02-15T16:03:30.061Z,99.90
2023-02-15T16:06:02.306Z,99.90
2023-02-15T16:08:37.118Z,99.90
2023-02-15T16:11:24.554Z,99.90
2023-02-15T16:13:54.761Z,99.90
2023-02-15T16:16:29.847Z,99.90
2023-02-15T16:19:01.288Z,99.90
2023-02-15T16:21:37.118Z,99.90
2023-02-15T16:24:41.900Z,99.90
2023-02-15T16:27:37.715Z,99.90
2023-02-15T16:30:27.659Z,99.90
2023-02-15T16:33:08.179Z,99.90
2023-02-15T16:35:39.147Z,99.90
2023-02-15T16:38:10.968Z,99.90
2023-02-15T16:40:59.476Z,99.90
2023-02-15T16:43:30.764Z,99.90
2023-02-15T16:46:08.048Z,99.90
2023-02-15T16:48:40.612Z,99.90
2023-02-15T16:51:10.690Z,99.90
2023-02-15T16:53:39.708Z,99.90
2023-02-15T16:56:08.452Z,99.90
2023-02-15T16:58:44.448Z,99.90
2023-02-15T17:01:15.961Z,99.90
2023-02-15T17:03:44.974Z,99.90
2023-02-15T17:06:28.257Z,99.90
2023-02-15T17:09:07.716Z,99.90
2023-02-15T17:11:44.075Z,99.90
2023-02-15T17:14:16.210Z,99.90
2023-02-15T17:16:51.164Z,99.90
2023-02-15T17:19:28.271Z,99.90
2023-02-15T17:22:03.084Z,99.90
2023-02-15T17:24:42.269Z,99.90
2023-02-15T17:27:22.946Z,99.90
2023-02-15T17:29:57.143Z,99.90
2023-02-15T17:32:35.240Z,98.70
2023-02-15T17:35:17.209Z,97.40
2023-02-15T17:37:50.610Z,91.40
2023-02-15T17:40:23.833Z,83.80
2023-02-15T17:42:52.627Z,99.10
2023-02-15T17:45:22.262Z,96.20
2023-02-15T17:47:52.089Z,91.20
2023-02-15T17:50:25.034Z,92.50
2023-02-15T17:52:54.815Z,85.30
2023-02-15T17:55:36.690Z,93.40
2023-02-15T17:58:13.629Z,93.70
2023-02-15T18:01:06.534Z,87.00
2023-02-15T18:04:10.859Z,89.00
2023-02-15T18:07:00.322Z,77.00
2023-02-15T18:09:47.280Z,76.20
2023-02-15T18:12:24.589Z,45.60
2023-02-15T18:14:56.397Z,55.80
2023-02-15T18:17:46.784Z,28.40
2023-02-15T18:20:25.590Z,15.90
2023-02-15T18:22:55.071Z,1.00
2023-02-15T18:25:26.209Z,1.00
2023-02-15T18:27:55.520Z,1.00
2023-02-15T18:30:27.648Z,1.00
2023-02-15T18:32:58.613Z,1.00
2023-02-15T18:35:31.976Z,1.00
2023-02-15T18:38:01.816Z,1.00
2023-02-15T18:40:31.950Z,1.00
2023-02-15T18:43:00.360Z,1.00
2023-02-15T18:45:34.088Z,1.00
2023-02-15T18:48:02.702Z,1.00
2023-02-15T18:50:35.785Z,1.00
2023-02-15T18:53:05.904Z,1.00
2023-02-15T18:55:36.184Z,1.00
2023-02-15T18:58:04.653Z,1.00
2023-02-15T19:00:36.124Z,1.00
2023-02-15T19:03:04.747Z,1.00
2023-02-15T19:05:34.606Z,1.00
2023-02-15T19:08:04.114Z,1.00
2023-02-15T19:10:34.055Z,1.00
2023-02-15T19:13:02.531Z,1.00
2023-02-15T19:15:31.865Z,1.00
2023-02-15T19:18:00.266Z,1.00
2023-02-15T19:20:33.777Z,1.00
2023-02-15T19:23:03.513Z,1.00
2023-02-15T19:25:35.079Z,1.00
2023-02-15T19:28:17.263Z,1.00
2023-02-15T19:30:45.894Z,1.00
2023-02-15T19:33:20.411Z,1.00
2023-02-15T19:35:54.821Z,1.00
2023-02-15T19:38:29.929Z,1.00
2023-02-15T19:41:05.390Z,1.00
2023-02-15T19:43:34.831Z,1.00
2023-02-15T19:46:03.608Z,1.00
2023-02-15T19:48:32.251Z,1.00
2023-02-15T19:51:00.764Z,1.00
2023-02-15T19:53:30.226Z,1.00
2023-02-15T19:55:58.639Z,1.00
2023-02-15T19:58:27.177Z,1.00
2023-02-15T20:00:55.587Z,1.00
2023-02-15T20:03:24.016Z,1.00
2023-02-15T20:05:52.485Z,1.00
2023-02-15T20:08:23.680Z,1.00
2023-02-15T20:10:52.237Z,1.00
2023-02-15T20:13:21.740Z,1.00
2023-02-15T20:15:51.668Z,1.00
2023-02-15T20:18:22.359Z,1.00
2023-02-15T20:20:56.224Z,1.00
2023-02-15T20:23:31.413Z,1.00
2023-02-15T20:26:01.837Z,1.00
2023-02-15T20:28:32.418Z,1.00
2023-02-15T20:31:01.608Z,1.00
2023-02-15T20:33:30.211Z,1.00
2023-02-15T20:35:59.686Z,1.00
2023-02-15T20:38:31.263Z,1.00
2023-02-15T20:41:20.342Z,1.00
2023-02-15T20:43:49.367Z,1.00
2023-02-15T20:46:17.789Z,1.00
2023-02-15T20:48:46.169Z,1.00
2023-02-15T20:51:22.902Z,1.00
2023-02-15T20:53:51.360Z,1.00
2023-02-15T20:56:22.592Z,1.00
2023-02-15T20:58:52.155Z,1.00
2023-02-15T21:01:20.823Z,1.00
2023-02-15T21:03:49.629Z,1.00
2023-02-15T21:06:18.721Z,1.00
2023-02-15T21:08:47.183Z,1.00
2023-02-15T21:11:21.844Z,1.00
2023-02-15T21:13:51.567Z,1.00
2023-02-15T21:16:20.231Z,1.00
2023-02-15T21:18:48.736Z,1.00
2023-02-15T21:21:24.550Z,1.00
2023-02-15T21:23:54.596Z,1.00
2023-02-15T21:26:25.268Z,1.00
2023-02-15T21:28:53.912Z,1.00
2023-02-15T21:31:27.930Z,1.00
2023-02-15T21:33:56.402Z,1.00
2023-02-15T21:36:26.105Z,1.00
2023-02-15T21:38:54.704Z,1.00
2023-02-15T21:41:43.139Z,1.00
2023-02-15T21:44:40.526Z,1.00
2023-02-15T21:47:50.865Z,1.00
2023-02-15T21:50:40.724Z,1.00
2023-02-15T21:53:12.943Z,1.00
2023-02-15T21:55:41.446Z,1.00
2023-02-15T21:58:24.003Z,1.00
2023-02-15T22:00:55.605Z,1.00
2023-02-15T22:03:31.162Z,1.00
2023-02-15T22:05:59.714Z,1.00
2023-02-15T22:08:28.107Z,1.00
2023-02-15T22:10:57.616Z,1.00
2023-02-15T22:13:36.241Z,1.00
2023-02-15T22:16:04.888Z,1.00
2023-02-15T22:18:35.010Z,1.00
2023-02-15T22:21:05.157Z,1.00
2023-02-15T22:23:33.692Z,1.00
2023-02-15T22:26:09.525Z,1.00
2023-02-15T22:28:40.959Z,1.00
2023-02-15T22:31:14.918Z,1.00
2023-02-15T22:33:45.525Z,1.00
2023-02-15T22:36:27.539Z,1.00
2023-02-15T22:38:56.408Z,1.00
2023-02-15T22:41:31.018Z,1.00
2023-02-15T22:43:59.530Z,1.00
2023-02-15T22:46:28.231Z,1.00
2023-02-15T22:48:56.649Z,1.00
2023-02-15T22:51:26.438Z,1.00
2023-02-15T22:53:54.969Z,1.00
2023-02-15T22:56:31.929Z,1.00
2023-02-15T22:59:06.898Z,1.00
2023-02-15T23:01:37.520Z,1.00
2023-02-15T23:04:06.254Z,1.00
2023-02-15T23:06:35.716Z,1.00
2023-02-15T23:09:04.487Z,1.00
2023-02-15T23:11:32.932Z,1.00
2023-02-15T23:14:03.804Z,1.00
2023-02-15T23:16:36.038Z,1.00
2023-02-15T23:19:07.740Z,1.00
2023-02-15T23:21:36.773Z,1.00
2023-02-15T23:24:30.585Z,1.00
2023-02-15T23:27:20.031Z,1.00
2023-02-15T23:29:49.165Z,1.00
2023-02-15T23:32:18.498Z,1.00
2023-02-15T23:34:46.985Z,1.00
2023-02-15T23:37:16.606Z,1.00
2023-02-15T23:40:03.295Z,1.00
2023-02-15T23:42:34.487Z,1.00
2023-02-15T23:45:03.771Z,1.00
2023-02-15T23:47:53.778Z,1.00
2023-02-15T23:50:28.631Z,1.00
2023-02-15T23:52:57.830Z,1.00
2023-02-15T23:55:36.273Z,1.00
2023-02-15T23:58:14.553Z,1.00
